»·PEaware :: DAL3756 KPDX-KSEA

DAL3756 :: KPDX-KSEA

FLIGHT INFORMATION

Flight Status: Arrived
Operator:
Delta Air Lines
More flights by this operator :: More flights under this callsign
Pilot: Kyle H. (19522)
Aircraft: AIRBUS A321
(A321)
More flights by this aircraft type
Origin: KPDX Portland Intl
United States
Destination: KSEA Seattle-Tacoma Intl
United States
More flights between these airports :: More routes between these airports
Route: +PTLD1 COUGA KRIEG HAWKZ7
File this flight plan on PilotEdge
Remarks:
Altitude:
(Current/Filed)
20,000ft
Speed:
(Current/Filed)
405kts
Departed: 17-Jun-20 09:41 PM
Arrived: 17-Jun-20 10:08 PM
Distance/Time
Traveled:
112nm/0:27
Distance/Time
To Go:
Arrived

Flight Plot

Page will automatically refresh every two minutes.


Map Options




Map Legend


Flown Route
Filed Route
Departure Airport
Arrival Airport
Navaid (VOR, NDB)
Fix

Horizontal Profiles

Position Reports

Time Latitude Longitude Heading Altitude Ground
Speed
17-Jun-20 20:57 45.591428 -122.594675 230 38ft 0kts
17-Jun-20 20:58 45.591428 -122.594675 230 38ft 0kts
17-Jun-20 20:59 45.591428 -122.594675 230 38ft 0kts
17-Jun-20 21:00 45.591428 -122.594675 230 38ft 0kts
17-Jun-20 21:01 45.591428 -122.594675 230 38ft 0kts
17-Jun-20 21:02 45.591428 -122.594675 230 38ft 0kts
17-Jun-20 21:03 45.591428 -122.594675 230 38ft 0kts
17-Jun-20 21:04 45.591428 -122.594675 230 38ft 0kts
17-Jun-20 21:05 45.591428 -122.594675 230 38ft 0kts
17-Jun-20 21:06 45.591428 -122.594675 230 38ft 0kts
17-Jun-20 21:07 45.591428 -122.594675 230 38ft 0kts
17-Jun-20 21:08 45.591428 -122.594675 230 38ft 0kts
17-Jun-20 21:09 45.591428 -122.594675 230 38ft 0kts
17-Jun-20 21:10 45.591428 -122.594675 230 38ft 0kts
17-Jun-20 21:11 45.591428 -122.594675 230 38ft 0kts
17-Jun-20 21:12 45.591428 -122.594675 230 38ft 0kts
17-Jun-20 21:13 45.591428 -122.594675 230 38ft 0kts
17-Jun-20 21:14 45.591428 -122.594675 230 38ft 0kts
17-Jun-20 21:15 45.591428 -122.594675 230 38ft 0kts
17-Jun-20 21:16 45.591428 -122.594675 230 38ft 0kts
17-Jun-20 21:17 45.591428 -122.594675 230 38ft 0kts
17-Jun-20 21:18 45.591428 -122.594675 230 38ft 0kts
17-Jun-20 21:19 45.591428 -122.594675 230 38ft 0kts
17-Jun-20 21:20 45.591428 -122.594675 230 38ft 0kts
17-Jun-20 21:21 45.591428 -122.594675 230 38ft 0kts
17-Jun-20 21:22 45.591428 -122.594675 230 38ft 0kts
17-Jun-20 21:23 45.591428 -122.594675 230 38ft 0kts
17-Jun-20 21:24 45.591428 -122.594675 230 38ft 0kts
17-Jun-20 21:25 45.591428 -122.594675 230 38ft 0kts
17-Jun-20 21:26 45.591664 -122.594406 220 38ft 2kts
17-Jun-20 21:27 45.592133 -122.593869 218 38ft 2kts
17-Jun-20 21:28 45.592194 -122.593800 218 38ft 0kts
17-Jun-20 21:29 45.592194 -122.593800 218 38ft 0kts
17-Jun-20 21:30 45.592194 -122.593800 218 38ft 0kts
17-Jun-20 21:31 45.591952 -122.593620 118 38ft 0kts
17-Jun-20 21:32 45.591110 -122.591523 120 38ft 18kts
17-Jun-20 21:33 45.589040 -122.584050 119 38ft 20kts
17-Jun-20 21:34 45.586172 -122.576704 119 38ft 21kts
17-Jun-20 21:35 45.583260 -122.569199 118 38ft 21kts
17-Jun-20 21:36 45.582714 -122.567492 79 38ft 0kts
17-Jun-20 21:37 45.582714 -122.567492 79 38ft 0kts
17-Jun-20 21:38 45.582714 -122.567492 79 38ft 0kts
17-Jun-20 21:39 45.583546 -122.567007 330 38ft 10kts
17-Jun-20 21:40 45.595668 -122.597706 300 906ft 169kts
17-Jun-20 21:41 45.620109 -122.661562 298 3986ft 204kts
17-Jun-20 21:42 45.649189 -122.740030 298 5568ft 254kts
17-Jun-20 21:43 45.697061 -122.803008 15 7979ft 253kts
17-Jun-20 21:44 45.738831 -122.706638 34 9747ft 302kts
17-Jun-20 21:45 45.806045 -122.731274 346 13082ft 264kts
17-Jun-20 21:46 45.879861 -122.709599 6 14948ft 282kts
17-Jun-20 21:47 45.967225 -122.695348 3 16074ft 327kts
17-Jun-20 21:48 46.053118 -122.683677 1 19656ft 279kts
17-Jun-20 21:49 46.133706 -122.686430 350 20299ft 317kts
17-Jun-20 21:50 46.232520 -122.705728 350 20300ft 381kts
17-Jun-20 21:51 46.346679 -122.723941 355 20300ft 417kts
17-Jun-20 21:53 46.463883 -122.728253 356 19344ft 407kts
17-Jun-20 21:54 46.577349 -122.732290 356 16416ft 401kts
17-Jun-20 21:55 46.687883 -122.736197 357 14023ft 395kts
17-Jun-20 21:56 46.797099 -122.725035 28 13984ft 363kts
17-Jun-20 21:57 46.869968 -122.639914 35 13990ft 324kts
17-Jun-20 21:58 46.941656 -122.562756 22 13978ft 295kts
17-Jun-20 21:59 47.021721 -122.526604 13 13991ft 311kts
17-Jun-20 22:00 47.099643 -122.480812 52 13707ft 285kts
17-Jun-20 22:01 47.120129 -122.375178 73 11726ft 275kts
17-Jun-20 22:02 47.173324 -122.311538 8 8905ft 253kts
17-Jun-20 22:03 47.241407 -122.310149 359 6100ft 243kts
17-Jun-20 22:04 47.304075 -122.309720 359 3636ft 216kts
17-Jun-20 22:05 47.358605 -122.308505 358 1856ft 193kts
17-Jun-20 22:06 47.407654 -122.308197 359 923ft 181kts
17-Jun-20 22:07 47.445615 -122.307927 0 479ft 41kts
17-Jun-20 22:07 47.449937 -122.306481 139 478ft 2kts
17-Jun-20 22:09 47.443602 -122.306332 180 478ft 33kts
17-Jun-20 22:10 47.439979 -122.303149 66 478ft 17kts
17-Jun-20 22:11 47.440846 -122.300474 46 478ft 0kts
17-Jun-20 22:12 47.440846 -122.300474 46 478ft 0kts
17-Jun-20 22:12 47.440846 -122.300474 46 478ft 0kts
17-Jun-20 22:14 47.440846 -122.300475 46 478ft 0kts
17-Jun-20 22:14 47.440846 -122.300475 46 478ft 0kts
17-Jun-20 22:15 47.440846 -122.300475 46 478ft 0kts

Navigation Log

Ident Type
Flight plan parsing failed, navigation log unavailable